ANA565 RJTT-RJOK
Flight info
| Callsign | ANA565 |
|---|---|
| Flight time | N/A |
| Altitude | 34000 |
| Route | JYOGA Y566 LAXAS Y56 TOHME Y54 KOHWA Y12 KEC Y24 TURFY Y242 PANCH |
| Aircraft | A20N/M-SDE2E3FGHIRWXY/LB1 |
Departure
| Time | 2026-04-30 14:57 |
|---|---|
| Airport | Tokyo Haneda International Airport (RJTT) |
Arrival
| Time | N/A |
|---|---|
| Airport | Kochi Ryoma Airport (RJOK) |
| Time | Latitude | Longitude | Altitude | Speed | Heading |
|---|---|---|---|---|---|
| 2026-04-30 14:43 | 35.55301 | 139.79080 | 29 ft | 0 kts | 60° |
| 2026-04-30 14:47 | 35.55302 | 139.79083 | 29 ft | 1 kts | 59° |
| 2026-04-30 14:48 | 35.55309 | 139.79099 | 29 ft | 2 kts | 59° |
| 2026-04-30 14:48 | 35.55323 | 139.79126 | 29 ft | 4 kts | 59° |
| 2026-04-30 14:48 | 35.55325 | 139.79167 | 29 ft | 5 kts | 118° |
| 2026-04-30 14:48 | 35.55284 | 139.79201 | 29 ft | 8 kts | 150° |
| 2026-04-30 14:49 | 35.55228 | 139.79240 | 29 ft | 10 kts | 150° |
| 2026-04-30 14:49 | 35.55160 | 139.79289 | 29 ft | 12 kts | 151° |
| 2026-04-30 14:49 | 35.55082 | 139.79343 | 29 ft | 13 kts | 149° |
| 2026-04-30 14:49 | 35.54997 | 139.79405 | 29 ft | 14 kts | 150° |
| 2026-04-30 14:50 | 35.54810 | 139.79535 | 28 ft | 16 kts | 150° |
| 2026-04-30 14:50 | 35.54712 | 139.79604 | 29 ft | 16 kts | 150° |
| 2026-04-30 14:51 | 35.54507 | 139.79750 | 29 ft | 17 kts | 149° |
| 2026-04-30 14:51 | 35.54401 | 139.79828 | 29 ft | 17 kts | 149° |
| 2026-04-30 14:51 | 35.54183 | 139.79980 | 29 ft | 18 kts | 150° |
| 2026-04-30 14:52 | 35.54071 | 139.80058 | 29 ft | 18 kts | 149° |
| 2026-04-30 14:52 | 35.53841 | 139.80191 | 29 ft | 18 kts | 194° |
| 2026-04-30 14:52 | 35.53713 | 139.80185 | 29 ft | 18 kts | 173° |
| 2026-04-30 14:53 | 35.53478 | 139.80316 | 29 ft | 18 kts | 149° |
| 2026-04-30 14:53 | 35.53362 | 139.80399 | 29 ft | 19 kts | 151° |
| 2026-04-30 14:54 | 35.53128 | 139.80559 | 29 ft | 19 kts | 150° |
| 2026-04-30 14:54 | 35.52910 | 139.80469 | 29 ft | 18 kts | 223° |
| 2026-04-30 14:55 | 35.52719 | 139.80254 | 29 ft | 18 kts | 223° |
| 2026-04-30 14:55 | 35.52624 | 139.80148 | 29 ft | 18 kts | 215° |
| 2026-04-30 14:55 | 35.52441 | 139.80302 | 29 ft | 15 kts | 131° |
| 2026-04-30 14:56 | 35.52425 | 139.80374 | 29 ft | 0 kts | 43° |
| 2026-04-30 14:56 | 35.52932 | 139.80946 | 29 ft | 120 kts | 41° |
| 2026-04-30 14:57 | 35.53684 | 139.81776 | 223 ft | 158 kts | 37° |
| 2026-04-30 14:57 | 35.55314 | 139.83626 | 1703 ft | 161 kts | 39° |
| 2026-04-30 14:58 | 35.57078 | 139.85637 | 2615 ft | 192 kts | 40° |
| 2026-04-30 14:58 | 35.58096 | 139.86806 | 2988 ft | 211 kts | 42° |
| 2026-04-30 14:58 | 35.58952 | 139.90401 | 3819 ft | 256 kts | 110° |
| 2026-04-30 14:59 | 35.55989 | 139.92773 | 5352 ft | 275 kts | 173° |
| 2026-04-30 15:00 | 35.50308 | 139.91338 | 7964 ft | 287 kts | 203° |
| 2026-04-30 15:00 | 35.47023 | 139.88632 | 9740 ft | 289 kts | 220° |
| 2026-04-30 15:01 | 35.44456 | 139.84734 | 11015 ft | 310 kts | 238° |
| 2026-04-30 15:01 | 35.43507 | 139.82274 | 11422 ft | 327 kts | 248° |
| 2026-04-30 15:01 | 35.41869 | 139.76914 | 12330 ft | 349 kts | 236° |
| 2026-04-30 15:02 | 35.40158 | 139.74789 | 12824 ft | 354 kts | 214° |
| 2026-04-30 15:02 | 35.37960 | 139.73438 | 13564 ft | 355 kts | 205° |
| 2026-04-30 15:03 | 35.31710 | 139.68530 | 15467 ft | 362 kts | 218° |
| 2026-04-30 15:03 | 35.27671 | 139.64740 | 16608 ft | 368 kts | 220° |
| 2026-04-30 15:04 | 35.23602 | 139.60957 | 17796 ft | 370 kts | 220° |
| 2026-04-30 15:04 | 35.17890 | 139.55678 | 19313 ft | 372 kts | 220° |
| 2026-04-30 15:05 | 35.12980 | 139.48558 | 20846 ft | 368 kts | 243° |
| 2026-04-30 15:06 | 35.10709 | 139.42984 | 21817 ft | 368 kts | 244° |
| 2026-04-30 15:06 | 35.08437 | 139.37341 | 22541 ft | 373 kts | 245° |
| 2026-04-30 15:07 | 35.06152 | 139.31679 | 23436 ft | 373 kts | 244° |
| 2026-04-30 15:07 | 35.03975 | 139.25896 | 24265 ft | 375 kts | 248° |
| 2026-04-30 15:08 | 35.02450 | 139.19829 | 25054 ft | 379 kts | 254° |
| 2026-04-30 15:08 | 35.00811 | 139.10344 | 26111 ft | 385 kts | 256° |
| 2026-04-30 15:09 | 34.99723 | 139.03938 | 26804 ft | 387 kts | 255° |
| 2026-04-30 15:09 | 34.98853 | 138.97412 | 27437 ft | 392 kts | 259° |
| 2026-04-30 15:10 | 34.98418 | 138.90797 | 28000 ft | 397 kts | 261° |
| 2026-04-30 15:11 | 34.97698 | 138.77277 | 29380 ft | 397 kts | 261° |
| 2026-04-30 15:11 | 34.97341 | 138.70647 | 30203 ft | 393 kts | 261° |
| 2026-04-30 15:12 | 34.96804 | 138.60761 | 31348 ft | 389 kts | 261° |
| 2026-04-30 15:13 | 34.96442 | 138.54153 | 32180 ft | 385 kts | 261° |
| 2026-04-30 15:14 | 34.95724 | 138.41206 | 33463 ft | 384 kts | 261° |
| 2026-04-30 15:14 | 34.95174 | 138.31468 | 34048 ft | 385 kts | 261° |
| 2026-04-30 15:17 | 34.93486 | 138.02267 | 34032 ft | 385 kts | 261° |
| 2026-04-30 15:19 | 34.91914 | 137.76427 | 34005 ft | 382 kts | 259° |